N41G KRNO-KSMF
Flight info
| Callsign | N41G |
|---|---|
| Flight time | 0h 47m |
| Altitude | 8000 |
| Route | ZEFFR9.MRLET..SLMMR.SLMMR5 |
| Aircraft | BE35/L-G/C |
Departure
| Time | 2026-05-05 03:39 |
|---|---|
| Airport | Reno Tahoe International Airport (KRNO) |
Arrival
| Time | 2026-05-05 04:27 |
|---|---|
| Airport | Sacramento International Airport (KSMF) |
| Time | Latitude | Longitude | Altitude | Speed | Heading |
|---|---|---|---|---|---|
| 2026-05-05 03:12 | 39.50108 | -119.76421 | 4419 ft | 0 kts | 90° |
| 2026-05-05 03:15 | 39.50108 | -119.76420 | 4419 ft | 0 kts | 90° |
| 2026-05-05 03:17 | 39.50108 | -119.76419 | 4419 ft | 0 kts | 90° |
| 2026-05-05 03:19 | 39.50109 | -119.76416 | 4419 ft | 2 kts | 45° |
| 2026-05-05 03:20 | 39.50113 | -119.76423 | 4419 ft | 1 kts | 257° |
| 2026-05-05 03:20 | 39.50110 | -119.76439 | 4419 ft | 4 kts | 259° |
| 2026-05-05 03:20 | 39.50108 | -119.76469 | 4419 ft | 4 kts | 271° |
| 2026-05-05 03:20 | 39.50112 | -119.76509 | 4419 ft | 6 kts | 300° |
| 2026-05-05 03:21 | 39.50164 | -119.76522 | 4419 ft | 9 kts | 342° |
| 2026-05-05 03:21 | 39.50202 | -119.76573 | 4419 ft | 8 kts | 353° |
| 2026-05-05 03:21 | 39.50270 | -119.76575 | 4419 ft | 11 kts | 1° |
| 2026-05-05 03:21 | 39.50353 | -119.76575 | 4419 ft | 13 kts | 360° |
| 2026-05-05 03:22 | 39.50445 | -119.76574 | 4419 ft | 14 kts | 0° |
| 2026-05-05 03:22 | 39.50545 | -119.76574 | 4419 ft | 15 kts | 359° |
| 2026-05-05 03:22 | 39.50652 | -119.76572 | 4419 ft | 16 kts | 2° |
| 2026-05-05 03:22 | 39.50767 | -119.76571 | 4419 ft | 16 kts | 0° |
| 2026-05-05 03:23 | 39.50887 | -119.76571 | 4419 ft | 18 kts | 1° |
| 2026-05-05 03:23 | 39.51004 | -119.76570 | 4419 ft | 17 kts | 360° |
| 2026-05-05 03:23 | 39.51079 | -119.76520 | 4419 ft | 10 kts | 22° |
| 2026-05-05 03:23 | 39.51156 | -119.76517 | 4419 ft | 12 kts | 359° |
| 2026-05-05 03:24 | 39.51235 | -119.76517 | 4419 ft | 11 kts | 0° |
| 2026-05-05 03:24 | 39.51307 | -119.76517 | 4419 ft | 7 kts | 0° |
| 2026-05-05 03:24 | 39.51351 | -119.76538 | 4419 ft | 7 kts | 284° |
| 2026-05-05 03:24 | 39.51353 | -119.76571 | 4419 ft | 0 kts | 270° |
| 2026-05-05 03:25 | 39.51353 | -119.76578 | 4419 ft | 2 kts | 270° |
| 2026-05-05 03:25 | 39.51353 | -119.76582 | 4419 ft | 0 kts | 270° |
| 2026-05-05 03:25 | 39.51353 | -119.76583 | 4419 ft | 0 kts | 270° |
| 2026-05-05 03:25 | 39.51353 | -119.76584 | 4419 ft | 0 kts | 270° |
| 2026-05-05 03:26 | 39.51353 | -119.76588 | 4419 ft | 0 kts | 270° |
| 2026-05-05 03:26 | 39.51353 | -119.76592 | 4419 ft | 0 kts | 270° |
| 2026-05-05 03:26 | 39.51353 | -119.76593 | 4419 ft | 0 kts | 270° |
| 2026-05-05 03:27 | 39.51353 | -119.76594 | 4419 ft | 0 kts | 270° |
| 2026-05-05 03:31 | 39.51353 | -119.76595 | 4419 ft | 0 kts | 270° |
| 2026-05-05 03:35 | 39.51353 | -119.76596 | 4419 ft | 0 kts | 270° |
| 2026-05-05 03:37 | 39.51352 | -119.76625 | 4419 ft | 6 kts | 269° |
| 2026-05-05 03:38 | 39.51337 | -119.76670 | 4419 ft | 5 kts | 197° |
| 2026-05-05 03:38 | 39.51281 | -119.76674 | 4419 ft | 21 kts | 182° |
| 2026-05-05 03:38 | 39.50949 | -119.76674 | 4419 ft | 73 kts | 182° |
| 2026-05-05 03:38 | 39.50319 | -119.76668 | 4485 ft | 101 kts | 190° |
| 2026-05-05 03:39 | 39.49584 | -119.76665 | 4733 ft | 110 kts | 187° |
| 2026-05-05 03:39 | 39.48820 | -119.76641 | 5074 ft | 111 kts | 185° |
| 2026-05-05 03:39 | 39.48051 | -119.76661 | 5419 ft | 112 kts | 191° |
| 2026-05-05 03:39 | 39.47264 | -119.76696 | 5754 ft | 112 kts | 192° |
| 2026-05-05 03:40 | 39.46508 | -119.76833 | 6108 ft | 111 kts | 189° |
| 2026-05-05 03:40 | 39.45726 | -119.76836 | 6426 ft | 111 kts | 182° |
| 2026-05-05 03:40 | 39.44979 | -119.76939 | 6785 ft | 107 kts | 191° |
| 2026-05-05 03:40 | 39.44240 | -119.77125 | 7099 ft | 108 kts | 187° |
| 2026-05-05 03:41 | 39.43478 | -119.77085 | 7408 ft | 109 kts | 174° |
| 2026-05-05 03:41 | 39.42717 | -119.77004 | 7715 ft | 110 kts | 179° |
| 2026-05-05 03:41 | 39.41952 | -119.76975 | 8017 ft | 110 kts | 179° |
| 2026-05-05 03:41 | 39.41131 | -119.76921 | 8124 ft | 124 kts | 176° |
| 2026-05-05 03:42 | 39.40230 | -119.76816 | 8114 ft | 136 kts | 178° |
| 2026-05-05 03:42 | 39.39264 | -119.76787 | 8150 ft | 140 kts | 181° |
| 2026-05-05 03:42 | 39.38276 | -119.76788 | 8163 ft | 145 kts | 181° |
| 2026-05-05 03:42 | 39.37245 | -119.76784 | 8163 ft | 149 kts | 183° |
| 2026-05-05 03:43 | 39.36222 | -119.76865 | 8209 ft | 149 kts | 188° |
| 2026-05-05 03:43 | 39.35167 | -119.77052 | 8122 ft | 157 kts | 187° |
| 2026-05-05 03:43 | 39.34065 | -119.77218 | 8116 ft | 156 kts | 188° |
| 2026-05-05 03:43 | 39.33347 | -119.77288 | 8104 ft | 158 kts | 185° |
| 2026-05-05 03:44 | 39.31887 | -119.77489 | 8062 ft | 160 kts | 189° |
| 2026-05-05 03:44 | 39.30811 | -119.77807 | 8075 ft | 158 kts | 194° |
| 2026-05-05 03:44 | 39.29753 | -119.78183 | 8089 ft | 157 kts | 196° |
| 2026-05-05 03:44 | 39.28698 | -119.78570 | 8050 ft | 160 kts | 197° |
| 2026-05-05 03:45 | 39.27606 | -119.78867 | 8046 ft | 160 kts | 188° |
| 2026-05-05 03:45 | 39.26878 | -119.79002 | 8065 ft | 158 kts | 189° |
| 2026-05-05 03:45 | 39.25793 | -119.79250 | 8067 ft | 159 kts | 191° |
| 2026-05-05 03:45 | 39.24707 | -119.79545 | 8039 ft | 160 kts | 193° |
| 2026-05-05 03:46 | 39.23627 | -119.79888 | 8055 ft | 159 kts | 193° |
| 2026-05-05 03:46 | 39.22544 | -119.80169 | 8053 ft | 159 kts | 190° |
| 2026-05-05 03:46 | 39.21451 | -119.80412 | 8043 ft | 159 kts | 191° |
| 2026-05-05 03:46 | 39.20361 | -119.80665 | 8051 ft | 159 kts | 190° |
| 2026-05-05 03:47 | 39.19272 | -119.80890 | 8048 ft | 159 kts | 189° |
| 2026-05-05 03:47 | 39.18178 | -119.81118 | 8045 ft | 159 kts | 189° |
| 2026-05-05 03:47 | 39.17085 | -119.81359 | 8049 ft | 159 kts | 191° |
| 2026-05-05 03:47 | 39.15997 | -119.81632 | 8032 ft | 160 kts | 191° |
| 2026-05-05 03:48 | 39.14903 | -119.81922 | 8031 ft | 160 kts | 193° |
| 2026-05-05 03:48 | 39.13852 | -119.82304 | 8048 ft | 159 kts | 204° |
| 2026-05-05 03:48 | 39.13069 | -119.83276 | 8085 ft | 158 kts | 246° |
| 2026-05-05 03:48 | 39.12854 | -119.84671 | 8076 ft | 160 kts | 259° |
| 2026-05-05 03:49 | 39.12599 | -119.86058 | 8065 ft | 160 kts | 255° |
| 2026-05-05 03:49 | 39.12340 | -119.87436 | 8103 ft | 159 kts | 258° |
| 2026-05-05 03:49 | 39.12152 | -119.88843 | 8100 ft | 159 kts | 261° |
| 2026-05-05 03:49 | 39.11997 | -119.90259 | 8082 ft | 160 kts | 263° |
| 2026-05-05 03:50 | 39.11882 | -119.91700 | 8050 ft | 162 kts | 266° |
| 2026-05-05 03:50 | 39.11807 | -119.93147 | 8090 ft | 158 kts | 268° |
| 2026-05-05 03:50 | 39.11753 | -119.94484 | 8480 ft | 142 kts | 268° |
| 2026-05-05 03:50 | 39.11704 | -119.95712 | 8817 ft | 134 kts | 268° |
| 2026-05-05 03:51 | 39.11686 | -119.96897 | 9099 ft | 131 kts | 271° |
| 2026-05-05 03:51 | 39.11729 | -119.98082 | 9303 ft | 134 kts | 274° |
| 2026-05-05 03:51 | 39.11793 | -119.99286 | 9532 ft | 135 kts | 272° |
| 2026-05-05 03:51 | 39.11772 | -120.00504 | 9739 ft | 137 kts | 268° |
| 2026-05-05 03:52 | 39.11679 | -120.01714 | 9976 ft | 136 kts | 261° |
| 2026-05-05 03:52 | 39.11508 | -120.02940 | 10093 ft | 144 kts | 259° |
| 2026-05-05 03:52 | 39.11270 | -120.04220 | 10131 ft | 151 kts | 255° |
| 2026-05-05 03:52 | 39.11138 | -120.05557 | 10193 ft | 151 kts | 269° |
| 2026-05-05 03:53 | 39.11083 | -120.06926 | 10226 ft | 153 kts | 270° |
| 2026-05-05 03:53 | 39.11073 | -120.08313 | 10211 ft | 159 kts | 265° |
| 2026-05-05 03:53 | 39.10946 | -120.09739 | 10230 ft | 160 kts | 265° |
| 2026-05-05 03:53 | 39.10811 | -120.11178 | 10224 ft | 163 kts | 262° |
| 2026-05-05 03:54 | 39.10697 | -120.12632 | 10196 ft | 166 kts | 268° |
| 2026-05-05 03:54 | 39.10647 | -120.14114 | 10199 ft | 166 kts | 271° |
| 2026-05-05 03:54 | 39.10617 | -120.15601 | 10188 ft | 167 kts | 271° |
| 2026-05-05 03:54 | 39.10604 | -120.17096 | 10170 ft | 168 kts | 268° |
| 2026-05-05 03:55 | 39.10458 | -120.18589 | 10172 ft | 168 kts | 262° |
| 2026-05-05 03:55 | 39.10265 | -120.20062 | 10185 ft | 167 kts | 263° |
| 2026-05-05 03:55 | 39.10069 | -120.21537 | 10178 ft | 168 kts | 263° |
| 2026-05-05 03:55 | 39.09964 | -120.23035 | 10175 ft | 167 kts | 265° |
| 2026-05-05 03:56 | 39.09905 | -120.24527 | 10173 ft | 167 kts | 272° |
| 2026-05-05 03:56 | 39.09979 | -120.26031 | 10116 ft | 171 kts | 275° |
| 2026-05-05 03:56 | 39.09941 | -120.27537 | 10167 ft | 167 kts | 265° |
| 2026-05-05 03:56 | 39.09827 | -120.29021 | 10190 ft | 166 kts | 265° |
| 2026-05-05 03:57 | 39.09553 | -120.30496 | 10096 ft | 171 kts | 257° |
| 2026-05-05 03:57 | 39.09264 | -120.31938 | 10173 ft | 165 kts | 260° |
| 2026-05-05 03:57 | 39.09147 | -120.33403 | 10156 ft | 167 kts | 271° |
| 2026-05-05 03:57 | 39.09139 | -120.34908 | 10128 ft | 168 kts | 268° |
| 2026-05-05 03:58 | 39.09012 | -120.36391 | 10165 ft | 165 kts | 265° |
| 2026-05-05 03:58 | 39.08903 | -120.37868 | 10147 ft | 167 kts | 263° |
| 2026-05-05 03:58 | 39.08800 | -120.39364 | 10141 ft | 167 kts | 268° |
| 2026-05-05 03:58 | 39.08762 | -120.40845 | 10163 ft | 165 kts | 275° |
| 2026-05-05 03:59 | 39.08852 | -120.42328 | 10128 ft | 167 kts | 276° |
| 2026-05-05 03:59 | 39.08982 | -120.43802 | 10165 ft | 165 kts | 277° |
| 2026-05-05 03:59 | 39.08918 | -120.45290 | 10096 ft | 170 kts | 263° |
| 2026-05-05 03:59 | 39.08804 | -120.46794 | 10141 ft | 166 kts | 265° |
| 2026-05-05 04:00 | 39.08706 | -120.48260 | 10177 ft | 165 kts | 267° |
| 2026-05-05 04:00 | 39.08573 | -120.49742 | 10131 ft | 168 kts | 263° |
| 2026-05-05 04:00 | 39.08458 | -120.51237 | 10159 ft | 166 kts | 266° |
| 2026-05-05 04:00 | 39.08409 | -120.52714 | 10167 ft | 166 kts | 271° |
| 2026-05-05 04:01 | 39.08375 | -120.54206 | 10139 ft | 168 kts | 269° |
| 2026-05-05 04:01 | 39.08345 | -120.55679 | 10167 ft | 166 kts | 271° |
| 2026-05-05 04:01 | 39.08347 | -120.57158 | 10165 ft | 166 kts | 271° |
| 2026-05-05 04:01 | 39.08254 | -120.58656 | 10136 ft | 168 kts | 266° |
| 2026-05-05 04:02 | 39.08140 | -120.60143 | 10173 ft | 166 kts | 265° |
| 2026-05-05 04:02 | 39.08031 | -120.61627 | 10147 ft | 168 kts | 267° |
| 2026-05-05 04:02 | 39.07933 | -120.63124 | 10143 ft | 167 kts | 267° |
| 2026-05-05 04:02 | 39.07859 | -120.64611 | 10162 ft | 166 kts | 269° |
| 2026-05-05 04:03 | 39.07803 | -120.66102 | 10147 ft | 167 kts | 268° |
| 2026-05-05 04:03 | 39.07728 | -120.67598 | 10146 ft | 167 kts | 267° |
| 2026-05-05 04:03 | 39.07643 | -120.69085 | 10152 ft | 167 kts | 264° |
| 2026-05-05 04:03 | 39.07351 | -120.70521 | 10123 ft | 169 kts | 249° |
| 2026-05-05 04:04 | 39.06876 | -120.71891 | 10149 ft | 167 kts | 247° |
| 2026-05-05 04:04 | 39.06387 | -120.73256 | 10134 ft | 168 kts | 246° |
| 2026-05-05 04:04 | 39.05932 | -120.74647 | 10131 ft | 168 kts | 250° |
| 2026-05-05 04:04 | 39.05539 | -120.76055 | 10141 ft | 167 kts | 253° |
| 2026-05-05 04:05 | 39.05181 | -120.77485 | 10133 ft | 168 kts | 254° |
| 2026-05-05 04:05 | 39.04847 | -120.78921 | 10133 ft | 167 kts | 255° |
| 2026-05-05 04:05 | 39.04528 | -120.80358 | 10135 ft | 167 kts | 256° |
| 2026-05-05 04:05 | 39.04202 | -120.81800 | 10129 ft | 168 kts | 255° |
| 2026-05-05 04:06 | 39.03883 | -120.83246 | 10132 ft | 167 kts | 256° |
| 2026-05-05 04:06 | 39.03549 | -120.84685 | 10127 ft | 168 kts | 251° |
| 2026-05-05 04:06 | 39.03037 | -120.86047 | 10102 ft | 170 kts | 242° |
| 2026-05-05 04:06 | 39.02476 | -120.87367 | 10145 ft | 167 kts | 245° |
| 2026-05-05 04:07 | 39.02034 | -120.88744 | 10129 ft | 168 kts | 253° |
| 2026-05-05 04:07 | 39.01685 | -120.90181 | 10116 ft | 168 kts | 254° |
| 2026-05-05 04:07 | 39.01358 | -120.91592 | 10150 ft | 166 kts | 256° |
| 2026-05-05 04:07 | 39.01061 | -120.93049 | 10127 ft | 168 kts | 258° |
| 2026-05-05 04:08 | 39.00794 | -120.94508 | 10130 ft | 167 kts | 257° |
| 2026-05-05 04:08 | 39.00484 | -120.95925 | 10141 ft | 167 kts | 256° |
| 2026-05-05 04:08 | 39.00170 | -120.97368 | 10126 ft | 168 kts | 254° |
| 2026-05-05 04:08 | 38.99821 | -120.98798 | 10140 ft | 167 kts | 253° |
| 2026-05-05 04:09 | 38.99450 | -121.00209 | 10143 ft | 167 kts | 252° |
| 2026-05-05 04:09 | 38.99082 | -121.01631 | 10136 ft | 168 kts | 255° |
| 2026-05-05 04:09 | 38.98790 | -121.03075 | 10144 ft | 167 kts | 259° |
| 2026-05-05 04:09 | 38.98484 | -121.04518 | 10113 ft | 169 kts | 250° |
| 2026-05-05 04:10 | 38.98041 | -121.05910 | 10150 ft | 167 kts | 249° |
| 2026-05-05 04:10 | 38.97643 | -121.07304 | 10154 ft | 167 kts | 254° |
| 2026-05-05 04:10 | 38.97352 | -121.08760 | 10122 ft | 168 kts | 257° |
| 2026-05-05 04:10 | 38.97106 | -121.10216 | 10161 ft | 165 kts | 261° |
| 2026-05-05 04:11 | 38.96851 | -121.11659 | 10154 ft | 167 kts | 257° |
| 2026-05-05 04:11 | 38.96510 | -121.13091 | 10139 ft | 168 kts | 253° |
| 2026-05-05 04:11 | 38.96087 | -121.14486 | 10161 ft | 167 kts | 248° |
| 2026-05-05 04:11 | 38.95600 | -121.15821 | 10157 ft | 168 kts | 245° |
| 2026-05-05 04:12 | 38.95074 | -121.17163 | 10154 ft | 168 kts | 246° |
| 2026-05-05 04:12 | 38.94614 | -121.18541 | 10160 ft | 167 kts | 250° |
| 2026-05-05 04:12 | 38.94210 | -121.19936 | 10165 ft | 167 kts | 252° |
| 2026-05-05 04:12 | 38.93811 | -121.21347 | 10167 ft | 167 kts | 251° |
| 2026-05-05 04:13 | 38.93422 | -121.22750 | 10170 ft | 167 kts | 252° |
| 2026-05-05 04:13 | 38.93053 | -121.24165 | 10173 ft | 167 kts | 254° |
| 2026-05-05 04:13 | 38.92726 | -121.25599 | 10172 ft | 167 kts | 256° |
| 2026-05-05 04:13 | 38.92449 | -121.27043 | 10175 ft | 167 kts | 260° |
| 2026-05-05 04:14 | 38.92237 | -121.28506 | 10176 ft | 167 kts | 261° |
| 2026-05-05 04:14 | 38.91950 | -121.29951 | 10173 ft | 168 kts | 252° |
| 2026-05-05 04:14 | 38.91435 | -121.31304 | 10143 ft | 168 kts | 242° |
| 2026-05-05 04:14 | 38.90936 | -121.32562 | 9952 ft | 156 kts | 245° |
| 2026-05-05 04:15 | 38.90534 | -121.33833 | 9785 ft | 152 kts | 253° |
| 2026-05-05 04:15 | 38.90241 | -121.35082 | 9564 ft | 145 kts | 255° |
| 2026-05-05 04:15 | 38.89978 | -121.36338 | 9255 ft | 146 kts | 257° |
| 2026-05-05 04:15 | 38.89669 | -121.37573 | 8981 ft | 144 kts | 251° |
| 2026-05-05 04:16 | 38.89347 | -121.38783 | 8738 ft | 141 kts | 253° |
| 2026-05-05 04:16 | 38.89084 | -121.40000 | 8432 ft | 143 kts | 260° |
| 2026-05-05 04:16 | 38.89033 | -121.41283 | 8126 ft | 144 kts | 269° |
| 2026-05-05 04:16 | 38.89031 | -121.42543 | 7917 ft | 139 kts | 269° |
| 2026-05-05 04:17 | 38.89047 | -121.43787 | 7630 ft | 141 kts | 271° |
| 2026-05-05 04:17 | 38.89014 | -121.45049 | 7349 ft | 141 kts | 264° |
| 2026-05-05 04:17 | 38.88960 | -121.46274 | 7134 ft | 137 kts | 266° |
| 2026-05-05 04:17 | 38.88914 | -121.47505 | 6853 ft | 139 kts | 263° |
| 2026-05-05 04:18 | 38.88796 | -121.48737 | 6599 ft | 138 kts | 262° |
| 2026-05-05 04:18 | 38.88759 | -121.49956 | 6370 ft | 137 kts | 270° |
| 2026-05-05 04:18 | 38.88820 | -121.51188 | 6096 ft | 138 kts | 270° |
| 2026-05-05 04:18 | 38.88732 | -121.52409 | 5832 ft | 137 kts | 258° |
| 2026-05-05 04:19 | 38.88561 | -121.53596 | 5619 ft | 134 kts | 259° |
| 2026-05-05 04:19 | 38.88458 | -121.54790 | 5355 ft | 134 kts | 262° |
| 2026-05-05 04:19 | 38.88363 | -121.55973 | 4910 ft | 134 kts | 262° |
| 2026-05-05 04:19 | 38.88261 | -121.57183 | 4390 ft | 137 kts | 259° |
| 2026-05-05 04:20 | 38.88074 | -121.58369 | 3922 ft | 135 kts | 253° |
| 2026-05-05 04:20 | 38.87504 | -121.59259 | 3342 ft | 135 kts | 199° |
| 2026-05-05 04:20 | 38.86633 | -121.59294 | 3155 ft | 115 kts | 176° |
| 2026-05-05 04:20 | 38.85869 | -121.59227 | 2882 ft | 105 kts | 175° |
| 2026-05-05 04:21 | 38.85169 | -121.59121 | 2628 ft | 100 kts | 174° |
| 2026-05-05 04:21 | 38.84494 | -121.59037 | 2432 ft | 94 kts | 177° |
| 2026-05-05 04:21 | 38.83842 | -121.59071 | 2198 ft | 94 kts | 184° |
| 2026-05-05 04:21 | 38.83199 | -121.59119 | 2082 ft | 94 kts | 183° |
| 2026-05-05 04:22 | 38.82537 | -121.59164 | 1967 ft | 99 kts | 185° |
| 2026-05-05 04:22 | 38.81845 | -121.59273 | 1850 ft | 101 kts | 187° |
| 2026-05-05 04:22 | 38.81157 | -121.59407 | 1764 ft | 100 kts | 189° |
| 2026-05-05 04:22 | 38.80474 | -121.59564 | 1678 ft | 100 kts | 189° |
| 2026-05-05 04:23 | 38.79785 | -121.59697 | 1580 ft | 100 kts | 186° |
| 2026-05-05 04:23 | 38.79089 | -121.59785 | 1481 ft | 101 kts | 186° |
| 2026-05-05 04:23 | 38.78392 | -121.59899 | 1384 ft | 101 kts | 186° |
| 2026-05-05 04:23 | 38.77695 | -121.59979 | 1284 ft | 101 kts | 180° |
| 2026-05-05 04:24 | 38.76986 | -121.59995 | 1170 ft | 103 kts | 180° |
| 2026-05-05 04:24 | 38.76254 | -121.60017 | 1018 ft | 106 kts | 179° |
| 2026-05-05 04:24 | 38.75513 | -121.60031 | 911 ft | 105 kts | 180° |
| 2026-05-05 04:25 | 38.74200 | -121.60056 | 625 ft | 87 kts | 178° |
| 2026-05-05 04:25 | 38.73611 | -121.60080 | 532 ft | 83 kts | 180° |
| 2026-05-05 04:25 | 38.73028 | -121.60072 | 429 ft | 82 kts | 176° |
| 2026-05-05 04:25 | 38.72470 | -121.60074 | 342 ft | 80 kts | 180° |
| 2026-05-05 04:26 | 38.71883 | -121.60088 | 255 ft | 87 kts | 178° |
| 2026-05-05 04:26 | 38.71269 | -121.60095 | 138 ft | 85 kts | 178° |
| 2026-05-05 04:26 | 38.70698 | -121.60105 | 50 ft | 79 kts | 178° |
| 2026-05-05 04:26 | 38.70225 | -121.60116 | 32 ft | 56 kts | 180° |
| 2026-05-05 04:27 | 38.69982 | -121.60120 | 32 ft | 17 kts | 180° |
| 2026-05-05 04:27 | 38.69871 | -121.60122 | 32 ft | 16 kts | 181° |
| 2026-05-05 04:27 | 38.69784 | -121.60123 | 32 ft | 8 kts | 180° |
| 2026-05-05 04:27 | 38.69760 | -121.60123 | 32 ft | 0 kts | 180° |